Decoded Metar for KAIZ (KAISER MEM in MO, USA) (IATA:AIZ) | Meteo·Mobile Aviation Weather
aviador You're here:

KAIZ Decoded Metar

KAISER MEM in MO, USA
Report Time2019-01-17 21:56:00
UTC Time2019-01-17 22:55:11
Flight Rules ifr IFR
Wind320° at 04 kt
W.Decomp.*RWY 04: 0.7 kt HW 3.9 kt LCW
W.Rank320° ranks 28
Current wind is below 320° avg. (5.5)
Visibility9999 m
Phenomena:N/A
Clouds:Overcast 008 Hf
Expected CloudBase > 800 ft AGL from Temp-Dew spread
Ceiling800 ft
Temp04°C (ISA -9)
Dew Point02°C (87% RH)
AAT0.9°C
QNH1019 hPa
Density Alt-358 ft
Elevation869 ft
Report Wrong Elevation
Raw Report
KAIZ 172156Z AUTO 32004KT 10SM OVC008 04/02 A3009 RMK AO2 SLP192
T00390022=

Extra information for KAIZ:More info

Metar Taf Metar & Taf Last 4 Metars F.Rules Stats Wind Profile Meteogram Temp Stats Airport Information Weather charts Add Link Nearby VenuesMetar ALERT Operation Metar Decoded Social comments

AIRNAV info for KAIZ